JAL6 RJTT-KJFK
Flight info
| Callsign | JAL6 |
|---|---|
| Flight time | N/A |
| Altitude | 33000 |
| Route | INUBO Y808 NOLAX Y812 ADNAP OTR5 KALNA 43N160E 47N170E/N0498F350 50N180E 53N170W 56N160W DCT CJAYY/N0484F370 DCT 57N140W 56N130W DCT HOWSE DCT ANTID DCT ODGOV/N0486F390 DCT WHIST DCT 49N100W DCT KP21C DCT KP15G DCT KP06K DCT KP84Q DCT JHW Q476 WLKES PUCKY1 |
| Aircraft | A35K/H-SDE2E3GHIJ3J4J5LM1ORWXY/LB1D1 |
Departure
| Time | N/A |
|---|---|
| Airport | Tokyo Haneda International Airport (RJTT) |
Arrival
| Time | 2026-05-04 04:32 |
|---|---|
| Airport | John F. Kennedy International Airport (KJFK) |
| Time | Latitude | Longitude | Altitude | Speed | Heading |
|---|---|---|---|---|---|
| 2026-05-04 04:13 | 39.54836 | -74.30719 | 22876 ft | 481 kts | 34° |
| 2026-05-04 04:13 | 39.57392 | -74.27859 | 23435 ft | 489 kts | 34° |
| 2026-05-04 04:13 | 39.59985 | -74.24972 | 23876 ft | 488 kts | 34° |
| 2026-05-04 04:13 | 39.62475 | -74.22195 | 23734 ft | 457 kts | 33° |
| 2026-05-04 04:14 | 39.64835 | -74.19581 | 22961 ft | 439 kts | 33° |
| 2026-05-04 04:14 | 39.67115 | -74.17079 | 21537 ft | 436 kts | 33° |
| 2026-05-04 04:14 | 39.69447 | -74.14525 | 19940 ft | 439 kts | 34° |
| 2026-05-04 04:14 | 39.71778 | -74.11955 | 18435 ft | 438 kts | 36° |
| 2026-05-04 04:15 | 39.74081 | -74.09401 | 16881 ft | 432 kts | 36° |
| 2026-05-04 04:15 | 39.76350 | -74.06882 | 15392 ft | 426 kts | 37° |
| 2026-05-04 04:15 | 39.78581 | -74.04406 | 14037 ft | 417 kts | 37° |
| 2026-05-04 04:15 | 39.80731 | -74.02017 | 13337 ft | 392 kts | 37° |
| 2026-05-04 04:16 | 39.82765 | -73.99774 | 12885 ft | 378 kts | 36° |
| 2026-05-04 04:16 | 39.84748 | -73.97944 | 12446 ft | 371 kts | 27° |
| 2026-05-04 04:16 | 39.86502 | -73.96640 | 12056 ft | 367 kts | 25° |
| 2026-05-04 04:16 | 39.88704 | -73.95085 | 11571 ft | 362 kts | 25° |
| 2026-05-04 04:17 | 39.90849 | -73.93573 | 11392 ft | 335 kts | 25° |
| 2026-05-04 04:17 | 39.92801 | -73.92198 | 11294 ft | 303 kts | 24° |
| 2026-05-04 04:17 | 39.94578 | -73.90957 | 11184 ft | 277 kts | 24° |
| 2026-05-04 04:17 | 39.96237 | -73.89809 | 11072 ft | 270 kts | 23° |
| 2026-05-04 04:18 | 39.97893 | -73.88663 | 10946 ft | 269 kts | 23° |
| 2026-05-04 04:18 | 39.99539 | -73.87512 | 10811 ft | 268 kts | 24° |
| 2026-05-04 04:18 | 40.01177 | -73.86359 | 10712 ft | 267 kts | 23° |
| 2026-05-04 04:18 | 40.02803 | -73.85183 | 10585 ft | 267 kts | 25° |
| 2026-05-04 04:19 | 40.04385 | -73.83918 | 10349 ft | 266 kts | 27° |
| 2026-05-04 04:19 | 40.05947 | -73.82639 | 10098 ft | 265 kts | 27° |
| 2026-05-04 04:19 | 40.07497 | -73.81378 | 9869 ft | 272 kts | 26° |
| 2026-05-04 04:19 | 40.09143 | -73.80047 | 9780 ft | 283 kts | 27° |
| 2026-05-04 04:20 | 40.10804 | -73.78697 | 9513 ft | 280 kts | 27° |
| 2026-05-04 04:20 | 40.12457 | -73.77358 | 9085 ft | 279 kts | 27° |
| 2026-05-04 04:20 | 40.14109 | -73.76023 | 8808 ft | 279 kts | 27° |
| 2026-05-04 04:20 | 40.15762 | -73.74689 | 8554 ft | 279 kts | 26° |
| 2026-05-04 04:21 | 40.17408 | -73.73359 | 8298 ft | 278 kts | 26° |
| 2026-05-04 04:21 | 40.19050 | -73.72034 | 8045 ft | 277 kts | 26° |
| 2026-05-04 04:21 | 40.20691 | -73.70711 | 7786 ft | 277 kts | 26° |
| 2026-05-04 04:21 | 40.22307 | -73.69405 | 7537 ft | 276 kts | 26° |
| 2026-05-04 04:22 | 40.23942 | -73.68086 | 7280 ft | 276 kts | 26° |
| 2026-05-04 04:22 | 40.25572 | -73.66769 | 7035 ft | 276 kts | 26° |
| 2026-05-04 04:22 | 40.27203 | -73.65451 | 6764 ft | 275 kts | 26° |
| 2026-05-04 04:22 | 40.28826 | -73.64137 | 6513 ft | 273 kts | 26° |
| 2026-05-04 04:23 | 40.30437 | -73.62833 | 6240 ft | 271 kts | 26° |
| 2026-05-04 04:23 | 40.32043 | -73.61533 | 6006 ft | 271 kts | 26° |
| 2026-05-04 04:23 | 40.33644 | -73.60237 | 5753 ft | 271 kts | 26° |
| 2026-05-04 04:23 | 40.35243 | -73.58942 | 5501 ft | 270 kts | 26° |
| 2026-05-04 04:24 | 40.36816 | -73.57667 | 5256 ft | 270 kts | 26° |
| 2026-05-04 04:24 | 40.38422 | -73.56395 | 5016 ft | 268 kts | 22° |
| 2026-05-04 04:24 | 40.40139 | -73.55587 | 4770 ft | 260 kts | 5° |
| 2026-05-04 04:24 | 40.41914 | -73.55250 | 4525 ft | 257 kts | 1° |
| 2026-05-04 04:25 | 40.43697 | -73.55008 | 4284 ft | 257 kts | 360° |
| 2026-05-04 04:25 | 40.45474 | -73.54777 | 4041 ft | 257 kts | 0° |
| 2026-05-04 04:25 | 40.47257 | -73.54542 | 3810 ft | 257 kts | 0° |
| 2026-05-04 04:25 | 40.48762 | -73.54337 | 3609 ft | 257 kts | 360° |
| 2026-05-04 04:26 | 40.50524 | -73.54076 | 3459 ft | 245 kts | 0° |
| 2026-05-04 04:26 | 40.52150 | -73.53872 | 3348 ft | 230 kts | 357° |
| 2026-05-04 04:26 | 40.53618 | -73.54217 | 3268 ft | 203 kts | 328° |
| 2026-05-04 04:26 | 40.54738 | -73.55190 | 3157 ft | 187 kts | 314° |
| 2026-05-04 04:27 | 40.55569 | -73.56462 | 3082 ft | 182 kts | 301° |
| 2026-05-04 04:27 | 40.56231 | -73.57852 | 2983 ft | 173 kts | 298° |
| 2026-05-04 04:27 | 40.56821 | -73.59152 | 2939 ft | 160 kts | 297° |
| 2026-05-04 04:27 | 40.57388 | -73.60411 | 2754 ft | 160 kts | 297° |
| 2026-05-04 04:28 | 40.57953 | -73.61671 | 2527 ft | 160 kts | 297° |
| 2026-05-04 04:28 | 40.58512 | -73.62909 | 2317 ft | 153 kts | 296° |
| 2026-05-04 04:28 | 40.59022 | -73.64041 | 2117 ft | 143 kts | 296° |
| 2026-05-04 04:28 | 40.59523 | -73.65156 | 1923 ft | 138 kts | 295° |
| 2026-05-04 04:29 | 40.60001 | -73.66215 | 1753 ft | 132 kts | 295° |
| 2026-05-04 04:29 | 40.60464 | -73.67245 | 1558 ft | 129 kts | 295° |
| 2026-05-04 04:29 | 40.60915 | -73.68247 | 1440 ft | 127 kts | 294° |
| 2026-05-04 04:29 | 40.61363 | -73.69244 | 1235 ft | 126 kts | 294° |
| 2026-05-04 04:30 | 40.61812 | -73.70241 | 1072 ft | 127 kts | 295° |
| 2026-05-04 04:30 | 40.62273 | -73.71254 | 907 ft | 131 kts | 295° |
| 2026-05-04 04:30 | 40.62756 | -73.72270 | 695 ft | 131 kts | 298° |
| 2026-05-04 04:30 | 40.63248 | -73.73274 | 523 ft | 134 kts | 300° |
| 2026-05-04 04:31 | 40.63708 | -73.74319 | 325 ft | 129 kts | 296° |
| 2026-05-04 04:31 | 40.64138 | -73.75367 | 159 ft | 130 kts | 295° |
| 2026-05-04 04:31 | 40.64601 | -73.76399 | 34 ft | 133 kts | 296° |
| 2026-05-04 04:31 | 40.65003 | -73.77308 | 27 ft | 104 kts | 300° |
| 2026-05-04 04:32 | 40.65330 | -73.78036 | 27 ft | 76 kts | 301° |
| 2026-05-04 04:32 | 40.65549 | -73.78527 | 26 ft | 49 kts | 300° |
| 2026-05-04 04:32 | 40.65669 | -73.78792 | 32 ft | 20 kts | 300° |
| 2026-05-04 04:32 | 40.65646 | -73.78921 | 30 ft | 13 kts | 194° |
| 2026-05-04 04:33 | 40.65580 | -73.78861 | 30 ft | 13 kts | 127° |
| 2026-05-04 04:33 | 40.65527 | -73.78750 | 31 ft | 16 kts | 121° |
| 2026-05-04 04:33 | 40.65464 | -73.78610 | 26 ft | 19 kts | 121° |
| 2026-05-04 04:33 | 40.65359 | -73.78495 | 26 ft | 21 kts | 143° |
| 2026-05-04 04:34 | 40.65257 | -73.78504 | 26 ft | 16 kts | 222° |
| 2026-05-04 04:34 | 40.65193 | -73.78637 | 26 ft | 18 kts | 240° |
| 2026-05-04 04:34 | 40.65147 | -73.78767 | 31 ft | 14 kts | 255° |
| 2026-05-04 04:34 | 40.65119 | -73.78888 | 29 ft | 10 kts | 223° |
| 2026-05-04 04:35 | 40.65058 | -73.78917 | 27 ft | 11 kts | 207° |
| 2026-05-04 04:35 | 40.65051 | -73.78977 | 28 ft | 7 kts | 300° |
| 2026-05-04 04:35 | 40.65076 | -73.79023 | 28 ft | 0 kts | 308° |
| 2026-05-04 04:35 | 40.65082 | -73.79032 | 25 ft | 1 kts | 309° |